Time;durP1;ratioP1;P1;durP2;ratioP2;P2;SDS_P1;SDS_P2;PMS_P1;PMS_P2;Temp;Humidity;BMP_temperature;BMP_pressure;BME280_temperature;BME280_humidity;BME280_pressure;Samples;Min_cycle;Max_cycle;Signal;HPM_P1;HPM_P2
2024/04/18 00:00:26;;;;;;;;;;;;;;;14.52;65.46;98046.41;5447774;26;19937;-81
2024/04/18 00:02:51;;;;;;;;;;;;;;;14.52;66.64;98044.56;5417713;26;20259;-81
2024/04/18 00:05:18;;;;;;;;;;;;;;;14.54;64.24;98086.81;5419158;26;19929;-81
2024/04/18 00:07:44;;;;;;;;;;;;;;;14.44;65.71;98090.09;5419091;26;19936;-80
2024/04/18 00:10:09;;;;;;;;;;;;;;;14.52;64.72;98079.06;5419912;26;19937;-81
2024/04/18 00:12:34;;;;;;;;;;;;;;;14.48;64.71;98085.09;5419286;26;19953;-81
2024/04/18 00:14:59;;;;;;;;;;;;;;;14.45;64.75;98090.91;5419341;26;19929;-80
2024/04/18 00:17:25;;;;;;;;;;;;;;;14.38;67.26;98068.97;5447061;26;19929;-80
2024/04/18 00:19:50;;;;;;;;;;;;;;;14.33;66.86;98056.41;5447322;26;19929;-80
2024/04/18 00:22:15;;;;;;;;;;;;;;;14.26;65.23;98058.41;5419295;26;20243;-80
2024/04/18 00:24:41;;;;;;;;;;;;;;;14.22;64.99;98044.78;5446987;26;19929;-81
2024/04/18 00:27:06;;;;;;;;;;;;;;;14.25;63.69;98032.91;5418666;26;19993;-81
2024/04/18 00:29:31;;;;;;;;;;;;;;;14.21;66.02;98027.25;5417495;26;20282;-81
2024/04/18 00:31:57;;;;;;;;;;;;;;;14.31;64.76;98034.59;5447241;26;20350;-81
2024/04/18 00:34:22;;;;;;;;;;;;;;;14.29;63.67;98028.72;5419148;26;19941;-81
2024/04/18 00:36:47;;;;;;;;;;;;;;;14.32;64.17;98030.91;5417062;26;19936;-81
2024/04/18 00:39:12;;;;;;;;;;;;;;;14.33;66.70;98027.19;5418594;26;19933;-81
2024/04/18 00:41:38;;;;;;;;;;;;;;;14.30;65.90;98031.13;5418567;26;19929;-82
2024/04/18 00:44:03;;;;;;;;;;;;;;;14.38;65.15;98032.59;5419119;26;19950;-81
2024/04/18 00:46:28;;;;;;;;;;;;;;;14.45;63.76;98035.94;5447197;26;19928;-81
2024/04/18 00:48:57;;;;;;;;;;;;;;;14.41;63.71;98039.28;5416901;26;20362;-81
2024/04/18 00:51:22;;;;;;;;;;;;;;;14.35;64.42;98041.03;5419020;26;19940;-81
2024/04/18 00:53:48;;;;;;;;;;;;;;;14.40;63.14;98061.56;5416966;26;19929;-81
2024/04/18 00:56:13;;;;;;;;;;;;;;;14.38;65.22;98069.75;5416805;26;19929;-81
2024/04/18 00:58:40;;;;;;;;;;;;;;;14.39;64.28;98044.81;5416821;26;20285;-81
2024/04/18 01:01:05;;;;;;;;;;;;;;;14.43;64.51;98051.31;5418401;26;19929;-80
2024/04/18 01:03:30;;;;;;;;;;;;;;;14.44;63.03;98038.81;5418615;26;20247;-80
2024/04/18 01:05:56;;;;;;;;;;;;;;;14.41;64.70;98010.06;5446541;26;19937;-81
2024/04/18 01:08:21;;;;;;;;;;;;;;;14.43;64.26;97971.63;5418553;26;19936;-82
2024/04/18 01:10:46;;;;;;;;;;;;;;;14.44;66.03;97954.66;5446401;26;19929;-81
2024/04/18 01:13:11;;;;;;;;;;;;;;;14.37;63.52;97958.50;5418764;26;19933;-81
2024/04/18 01:15:37;;;;;;;;;;;;;;;14.37;65.19;97985.84;5416481;26;20356;-81
2024/04/18 01:18:02;;;;;;;;;;;;;;;14.34;65.48;98006.75;5416252;26;19933;-81
2024/04/18 01:20:27;;;;;;;;;;;;;;;14.34;65.97;98025.34;5446124;26;19929;-81
2024/04/18 01:22:53;;;;;;;;;;;;;;;14.45;64.15;98029.81;5418018;26;19929;-81
2024/04/18 01:25:18;;;;;;;;;;;;;;;14.49;63.15;98023.78;5418318;26;20320;-81
2024/04/18 01:27:43;;;;;;;;;;;;;;;14.52;63.11;97999.41;5446139;26;19929;-81
2024/04/18 01:30:09;;;;;;;;;;;;;;;14.54;64.80;98004.47;5416141;26;19937;-81
2024/04/18 01:32:35;;;;;;;;;;;;;;;14.57;63.84;98018.06;5416071;26;19997;-81
2024/04/18 01:35:00;;;;;;;;;;;;;;;14.52;63.43;98012.69;5417824;26;19940;-81
2024/04/18 01:37:25;;;;;;;;;;;;;;;14.48;63.66;98006.25;5416784;26;19929;-81
2024/04/18 01:39:51;;;;;;;;;;;;;;;14.48;64.72;98018.72;5445937;26;19937;-81
2024/04/18 01:42:16;;;;;;;;;;;;;;;14.54;62.67;98045.13;5418080;26;20002;-81
2024/04/18 01:44:42;;;;;;;;;;;;;;;14.49;63.59;98034.41;5418248;26;19929;-81
2024/04/18 01:47:07;;;;;;;;;;;;;;;14.53;64.47;98011.63;5418320;26;20002;-81
2024/04/18 01:49:32;;;;;;;;;;;;;;;14.62;63.45;98014.69;5416584;26;19937;-81
2024/04/18 01:51:58;;;;;;;;;;;;;;;14.65;64.23;98032.81;5446040;26;20392;-81
2024/04/18 01:54:23;;;;;;;;;;;;;;;14.68;65.04;98036.84;5415822;26;19948;-81
2024/04/18 01:56:48;;;;;;;;;;;;;;;14.79;63.08;98033.28;5417571;26;19937;-81
2024/04/18 01:59:14;;;;;;;;;;;;;;;14.82;64.80;98025.66;5417915;26;19929;-81
2024/04/18 02:01:39;;;;;;;;;;;;;;;14.87;63.84;98003.69;5445759;26;19997;-81
2024/04/18 02:04:04;;;;;;;;;;;;;;;14.88;63.52;97992.00;5445468;26;20263;-80
2024/04/18 02:06:29;;;;;;;;;;;;;;;14.88;62.52;97982.19;5415526;26;19929;-81
2024/04/18 02:08:55;;;;;;;;;;;;;;;14.84;62.40;98001.50;5417200;26;19929;-81
2024/04/18 02:11:20;;;;;;;;;;;;;;;14.82;62.61;98016.88;5417368;26;20350;-81
2024/04/18 02:13:46;;;;;;;;;;;;;;;14.84;62.67;98042.16;5416979;26;20363;-81
2024/04/18 02:16:11;;;;;;;;;;;;;;;14.85;62.27;98045.63;5417007;26;20378;-81
2024/04/18 02:18:36;;;;;;;;;;;;;;;14.88;63.64;98061.09;5417163;26;19936;-81
2024/04/18 02:21:01;;;;;;;;;;;;;;;14.89;63.30;98049.44;5416010;26;20270;-81
2024/04/18 02:23:28;;;;;;;;;;;;;;;14.88;64.07;98040.66;5417661;26;19936;-81
2024/04/18 02:25:53;;;;;;;;;;;;;;;14.88;63.13;98037.19;5417293;26;19936;-81
2024/04/18 02:28:18;;;;;;;;;;;;;;;14.88;63.11;98040.66;5416853;26;19937;-81
2024/04/18 02:30:43;;;;;;;;;;;;;;;14.87;62.71;98046.22;5445193;26;20423;-81
2024/04/18 02:33:09;;;;;;;;;;;;;;;14.90;62.42;98051.03;5444984;26;19929;-80
2024/04/18 02:35:34;;;;;;;;;;;;;;;14.93;62.10;98042.59;5445019;26;20362;-81
2024/04/18 02:37:59;;;;;;;;;;;;;;;14.96;61.77;98049.25;5416912;26;19948;-80
2024/04/18 02:40:25;;;;;;;;;;;;;;;14.97;61.70;98057.00;5444940;26;19968;-81
2024/04/18 02:42:50;;;;;;;;;;;;;;;14.92;61.56;98052.41;5416830;26;20263;-81
2024/04/18 02:45:15;;;;;;;;;;;;;;;14.89;62.46;98050.22;5416715;26;19979;-81
2024/04/18 02:47:40;;;;;;;;;;;;;;;14.87;63.33;98043.53;5415135;26;20363;-81
2024/04/18 02:50:06;;;;;;;;;;;;;;;14.88;61.15;98038.00;5417991;26;19940;-81
2024/04/18 02:52:31;;;;;;;;;;;;;;;14.84;61.84;98025.41;5418654;26;20367;-81
2024/04/18 02:54:57;;;;;;;;;;;;;;;14.89;62.29;98026.31;5418556;26;19936;-81
2024/04/18 02:57:23;;;;;;;;;;;;;;;14.94;61.21;98030.91;5448488;26;19939;-81
2024/04/18 02:59:49;;;;;;;;;;;;;;;14.92;62.90;98035.66;5448465;26;20366;-81
2024/04/18 03:02:14;;;;;;;;;;;;;;;14.86;62.09;98039.25;5448638;26;19929;-81
2024/04/18 03:04:39;;;;;;;;;;;;;;;14.83;62.47;98045.03;5420688;26;19929;-81
2024/04/18 03:07:04;;;;;;;;;;;;;;;14.79;62.46;98046.56;5420088;26;19929;-81
2024/04/18 03:09:30;;;;;;;;;;;;;;;14.78;62.00;98042.31;5418380;26;20274;-79
2024/04/18 03:11:55;;;;;;;;;;;;;;;14.77;60.78;98051.31;5420276;26;19929;-81
2024/04/18 03:14:21;;;;;;;;;;;;;;;14.70;62.48;98058.66;5420238;26;20369;-81
2024/04/18 03:16:48;;;;;;;;;;;;;;;14.64;61.93;98057.75;5420214;26;19945;-81
2024/04/18 03:19:13;;;;;;;;;;;;;;;14.60;62.58;98061.94;5420331;26;19929;-81
2024/04/18 03:21:38;;;;;;;;;;;;;;;14.54;64.72;98068.22;5420931;26;20216;-81
2024/04/18 03:24:15;;;;;;;;;;;;;;;14.51;63.25;98072.16;5418359;26;20368;-81
2024/04/18 03:26:40;;;;;;;;;;;;;;;14.47;61.92;98057.75;5420387;26;19936;-81
2024/04/18 03:29:05;;;;;;;;;;;;;;;14.42;62.61;98072.75;5420091;26;19929;-81
2024/04/18 03:31:30;;;;;;;;;;;;;;;14.39;62.78;98076.69;5419756;26;20436;-82
2024/04/18 03:33:56;;;;;;;;;;;;;;;14.38;63.96;98077.72;5447770;26;19936;-81
2024/04/18 03:36:21;;;;;;;;;;;;;;;14.38;63.65;98079.59;5447830;26;19933;-81
2024/04/18 03:38:46;;;;;;;;;;;;;;;14.32;62.95;98079.50;5417876;26;19929;-81
2024/04/18 03:41:12;;;;;;;;;;;;;;;14.28;62.61;98070.38;5417872;26;19940;-81
2024/04/18 03:43:40;;;;;;;;;;;;;;;14.30;62.26;98072.81;5420187;26;19933;-80
2024/04/18 03:46:06;;;;;;;;;;;;;;;14.27;63.04;98068.78;5419825;26;20336;-82
2024/04/18 03:48:31;;;;;;;;;;;;;;;14.26;63.50;98067.16;5418052;26;19941;-82
2024/04/18 03:50:56;;;;;;;;;;;;;;;14.28;62.92;98073.03;5419445;26;20371;-81
2024/04/18 03:53:22;;;;;;;;;;;;;;;14.24;62.81;98084.38;5419667;26;19933;-80
2024/04/18 03:55:47;;;;;;;;;;;;;;;14.19;62.13;98084.28;5419175;26;19929;-81
2024/04/18 03:58:12;;;;;;;;;;;;;;;14.18;63.35;98078.16;5417621;26;19929;-81
2024/04/18 04:00:38;;;;;;;;;;;;;;;14.18;62.43;98083.47;5418748;26;20366;-81
2024/04/18 04:03:03;;;;;;;;;;;;;;;14.17;61.33;98084.50;5417641;26;19936;-81
2024/04/18 04:05:29;;;;;;;;;;;;;;;14.17;62.33;98081.84;5419376;26;19936;-81
2024/04/18 04:07:54;;;;;;;;;;;;;;;14.17;62.51;98084.50;5417706;26;19933;-81
2024/04/18 04:10:19;;;;;;;;;;;;;;;14.16;63.07;98087.41;5417556;26;20002;-81
2024/04/18 04:12:44;;;;;;;;;;;;;;;14.16;62.72;98088.22;5419022;26;19933;-81
2024/04/18 04:15:10;;;;;;;;;;;;;;;14.16;63.93;98092.72;5416958;26;20332;-81
2024/04/18 04:17:43;;;;;;;;;;;;;;;14.17;62.09;98094.31;5418810;26;19940;-81
2024/04/18 04:20:08;;;;;;;;;;;;;;;14.21;62.09;98098.13;5419501;26;20400;-81
2024/04/18 04:22:33;;;;;;;;;;;;;;;14.19;63.76;98106.31;5419544;26;19935;-81
2024/04/18 04:24:59;;;;;;;;;;;;;;;14.14;63.18;98114.19;5419378;26;19929;-81
2024/04/18 04:27:24;;;;;;;;;;;;;;;14.03;63.68;98114.19;5447198;26;19929;-81
2024/04/18 04:29:49;;;;;;;;;;;;;;;14.07;63.17;98123.28;5447202;26;19929;-80
2024/04/18 04:32:21;;;;;;;;;;;;;;;14.17;61.90;98126.19;5419152;26;19929;-80
2024/04/18 04:34:50;;;;;;;;;;;;;;;14.19;61.74;98132.88;5417188;26;19941;-82
2024/04/18 04:37:16;;;;;;;;;;;;;;;14.20;61.81;98141.63;5419077;26;19937;-81
2024/04/18 04:39:41;;;;;;;;;;;;;;;14.18;61.98;98152.50;5419133;26;19935;-81
2024/04/18 04:42:06;;;;;;;;;;;;;;;14.20;61.62;98158.38;5419019;26;19929;-81
2024/04/18 04:44:31;;;;;;;;;;;;;;;14.11;61.06;98156.28;5419119;26;20350;-82
2024/04/18 04:46:57;;;;;;;;;;;;;;;14.09;60.77;98159.19;5419072;26;19941;-81
2024/04/18 04:49:22;;;;;;;;;;;;;;;14.02;59.63;98163.81;5419244;26;19933;-81
2024/04/18 04:51:47;;;;;;;;;;;;;;;13.93;60.67;98160.72;5418632;26;19929;-81
2024/04/18 04:54:13;;;;;;;;;;;;;;;13.90;59.83;98178.94;5418652;26;19929;-81
2024/04/18 04:56:38;;;;;;;;;;;;;;;13.90;60.36;98176.28;5416568;26;20415;-82
2024/04/18 04:59:03;;;;;;;;;;;;;;;13.88;60.10;98171.22;5446804;26;19929;-81
2024/04/18 05:01:28;;;;;;;;;;;;;;;13.85;59.72;98176.19;5418978;26;19929;-81
2024/04/18 05:03:54;;;;;;;;;;;;;;;13.88;58.94;98179.16;5416695;26;20266;-81
2024/04/18 05:06:19;;;;;;;;;;;;;;;13.84;59.54;98183.31;5418651;26;19940;-82
2024/04/18 05:08:45;;;;;;;;;;;;;;;13.86;59.55;98183.91;5415515;26;20265;-81
2024/04/18 05:11:10;;;;;;;;;;;;;;;13.87;59.25;98182.88;5416347;26;19929;-81
2024/04/18 05:13:35;;;;;;;;;;;;;;;13.88;59.25;98184.47;5414910;26;19975;-82
2024/04/18 05:16:00;;;;;;;;;;;;;;;13.92;58.59;98192.78;5415847;26;19939;-81
2024/04/18 05:18:26;;;;;;;;;;;;;;;13.82;59.74;98196.00;5416060;26;19929;-81
2024/04/18 05:20:51;;;;;;;;;;;;;;;13.80;60.28;98190.13;5416222;26;20374;-81
2024/04/18 05:23:16;;;;;;;;;;;;;;;13.87;59.22;98190.00;5415521;26;19929;-81
2024/04/18 05:25:41;;;;;;;;;;;;;;;13.70;60.53;98200.53;5418113;26;19933;-81
2024/04/18 05:28:11;;;;;;;;;;;;;;;13.67;59.59;98196.47;5417812;26;19997;-81
2024/04/18 05:33:25;;;;;;;;;;;;;;;13.87;59.08;98213.88;5414711;26;19940;-81
2024/04/18 05:35:51;;;;;;;;;;;;;;;13.84;59.06;98220.47;5417042;26;19929;-81
2024/04/18 05:38:16;;;;;;;;;;;;;;;13.77;59.31;98211.81;5415154;26;19929;-81
2024/04/18 05:40:41;;;;;;;;;;;;;;;13.79;59.33;98219.53;5396972;26;20282;-80
2024/04/18 05:43:07;;;;;;;;;;;;;;;13.83;59.02;98216.19;5416749;26;19936;-81
2024/04/18 05:45:32;;;;;;;;;;;;;;;13.87;59.37;98221.84;5411502;26;20358;-81
2024/04/18 05:47:57;;;;;;;;;;;;;;;13.93;58.28;98228.88;5380186;26;19936;-80
2024/04/18 05:50:22;;;;;;;;;;;;;;;13.98;58.53;98223.69;5393992;26;19936;-81
2024/04/18 05:52:48;;;;;;;;;;;;;;;14.00;58.30;98217.13;5411056;26;19929;-81
2024/04/18 05:55:13;;;;;;;;;;;;;;;14.03;58.17;98230.97;5421811;26;20334;-81
2024/04/18 05:57:39;;;;;;;;;;;;;;;14.06;58.07;98227.84;5451117;26;19935;-81
2024/04/18 06:00:05;;;;;;;;;;;;;;;14.09;57.71;98227.38;5414901;26;20008;-81
2024/04/18 06:02:30;;;;;;;;;;;;;;;14.11;58.17;98230.59;5413169;26;19937;-81
2024/04/18 06:04:55;;;;;;;;;;;;;;;14.16;58.87;98242.16;5399418;26;19929;-80
2024/04/18 06:07:21;;;;;;;;;;;;;;;14.21;57.95;98250.25;5416989;26;19929;-80
2024/04/18 06:09:48;;;;;;;;;;;;;;;14.20;57.73;98245.16;5414817;26;19998;-81
2024/04/18 06:12:14;;;;;;;;;;;;;;;14.21;57.97;98257.41;5387755;26;19929;-81
2024/04/18 06:14:40;;;;;;;;;;;;;;;14.22;58.68;98256.34;5407631;26;19929;-80
2024/04/18 06:17:06;;;;;;;;;;;;;;;14.30;57.51;98262.13;5413277;26;19936;-81
2024/04/18 06:19:31;;;;;;;;;;;;;;;14.36;58.95;98259.56;5445050;26;19945;-81
2024/04/18 06:21:56;;;;;;;;;;;;;;;14.50;57.74;98247.69;5414876;26;20002;-80
2024/04/18 06:24:22;;;;;;;;;;;;;;;14.61;57.92;98255.63;5418888;26;20325;-81
2024/04/18 06:26:47;;;;;;;;;;;;;;;14.66;58.08;98259.41;5420575;26;20270;-80
2024/04/18 06:29:12;;;;;;;;;;;;;;;14.63;56.83;98263.34;5418798;26;19936;-80
2024/04/18 06:31:38;;;;;;;;;;;;;;;14.46;57.27;98267.78;5408033;26;19934;-80
2024/04/18 06:34:04;;;;;;;;;;;;;;;14.44;57.17;98252.06;5415782;26;19937;-80
2024/04/18 06:36:29;;;;;;;;;;;;;;;14.54;57.13;98262.91;5412333;26;20386;-80
2024/04/18 06:38:54;;;;;;;;;;;;;;;14.61;56.61;98260.94;5420416;26;19941;-80
2024/04/18 06:41:20;;;;;;;;;;;;;;;14.58;56.22;98256.09;5416965;26;19937;-80
2024/04/18 06:43:45;;;;;;;;;;;;;;;14.56;55.63;98258.16;5398011;26;19940;-79
2024/04/18 06:46:10;;;;;;;;;;;;;;;14.63;54.75;98263.34;5447121;26;19929;-80
2024/04/18 06:48:35;;;;;;;;;;;;;;;14.70;54.68;98265.88;5410990;26;20282;-80
2024/04/18 06:51:01;;;;;;;;;;;;;;;14.71;54.46;98273.59;5413245;26;20333;-81
2024/04/18 06:53:26;;;;;;;;;;;;;;;14.75;55.11;98277.41;5419086;26;19936;-80
2024/04/18 06:55:51;;;;;;;;;;;;;;;14.77;54.53;98279.81;5412480;26;19995;-80
2024/04/18 06:58:16;;;;;;;;;;;;;;;14.73;53.71;98286.66;5409529;26;19929;-80
2024/04/18 07:00:42;;;;;;;;;;;;;;;14.65;53.63;98298.44;5419658;26;19929;-78
2024/04/18 07:03:07;;;;;;;;;;;;;;;14.51;53.17;98300.56;5419563;26;19955;-80
2024/04/18 07:05:33;;;;;;;;;;;;;;;14.43;53.36;98303.56;5413436;26;19942;-79
2024/04/18 07:07:58;;;;;;;;;;;;;;;14.38;52.87;98300.78;5416453;26;19939;-80
2024/04/18 07:10:23;;;;;;;;;;;;;;;14.37;52.98;98304.47;5417196;26;19929;-81
2024/04/18 07:12:49;;;;;;;;;;;;;;;14.38;53.30;98303.44;5418871;26;20366;-81
2024/04/18 07:15:14;;;;;;;;;;;;;;;14.39;52.50;98307.72;5418913;26;20377;-80
2024/04/18 07:17:41;;;;;;;;;;;;;;;14.52;52.59;98317.31;5411176;26;19929;-81
2024/04/18 07:20:06;;;;;;;;;;;;;;;14.47;52.71;98323.31;5407478;26;20234;-81
2024/04/18 07:22:31;;;;;;;;;;;;;;;14.46;51.48;98320.88;5413602;26;19929;-81
2024/04/18 07:24:57;;;;;;;;;;;;;;;14.61;52.28;98315.91;5415306;26;19941;-81
2024/04/18 07:27:22;;;;;;;;;;;;;;;14.79;52.24;98325.56;5413659;26;20366;-81
2024/04/18 07:29:47;;;;;;;;;;;;;;;14.87;51.39;98336.66;5415887;26;19940;-81
2024/04/18 07:32:13;;;;;;;;;;;;;;;14.93;51.53;98353.53;5414186;26;19929;-82
2024/04/18 07:34:38;;;;;;;;;;;;;;;14.92;50.62;98362.53;5402751;26;20374;-82
2024/04/18 07:37:03;;;;;;;;;;;;;;;14.88;50.61;98342.78;5386576;26;19976;-81
2024/04/18 07:39:28;;;;;;;;;;;;;;;14.94;49.59;98350.63;5401041;26;19936;-80
2024/04/18 07:41:54;;;;;;;;;;;;;;;15.05;50.44;98346.31;5417384;26;19928;-81
2024/04/18 07:44:19;;;;;;;;;;;;;;;15.09;50.20;98339.50;5391750;26;20400;-81
2024/04/18 07:46:44;;;;;;;;;;;;;;;15.12;48.74;98344.34;5418005;26;19936;-81
2024/04/18 07:49:12;;;;;;;;;;;;;;;15.23;49.44;98345.34;5416050;26;19937;-79
2024/04/18 07:51:38;;;;;;;;;;;;;;;15.25;48.11;98335.28;5417058;26;19940;-80
2024/04/18 07:54:03;;;;;;;;;;;;;;;15.37;48.47;98353.84;5415110;26;19933;-78
2024/04/18 07:56:28;;;;;;;;;;;;;;;15.42;49.01;98345.94;5394561;26;19930;-82
2024/04/18 07:58:54;;;;;;;;;;;;;;;15.48;48.71;98356.44;5395330;26;20554;-81
2024/04/18 08:01:19;;;;;;;;;;;;;;;15.48;49.02;98379.56;5404495;26;19929;-82
2024/04/18 08:03:44;;;;;;;;;;;;;;;15.54;48.45;98347.50;5418146;26;20929;-81
2024/04/18 08:06:09;;;;;;;;;;;;;;;15.58;48.13;98363.84;5415666;26;19929;-80
2024/04/18 08:08:35;;;;;;;;;;;;;;;15.70;47.98;98359.28;5416440;26;19929;-81
2024/04/18 08:11:00;;;;;;;;;;;;;;;15.76;48.50;98361.00;5418638;26;19956;-81
2024/04/18 08:13:25;;;;;;;;;;;;;;;15.82;48.57;98365.34;5419001;26;20247;-81
2024/04/18 08:15:51;;;;;;;;;;;;;;;15.88;48.53;98348.41;5419377;26;19937;-82
2024/04/18 08:18:16;;;;;;;;;;;;;;;16.09;48.63;98376.16;5410103;26;20260;-81
2024/04/18 08:20:48;;;;;;;;;;;;;;;16.17;47.95;98374.97;5409160;26;20352;-82
2024/04/18 08:23:19;;;;;;;;;;;;;;;16.26;47.57;98370.03;5398510;26;20944;-81
2024/04/18 08:25:45;;;;;;;;;;;;;;;16.45;47.14;98371.41;5407151;26;19937;-79
2024/04/18 08:28:11;;;;;;;;;;;;;;;16.73;47.15;98376.63;5415495;26;20025;-80
2024/04/18 08:30:36;;;;;;;;;;;;;;;16.86;45.70;98383.47;5416791;26;19936;-81
2024/04/18 08:33:01;;;;;;;;;;;;;;;16.68;45.69;98387.22;5417260;26;20265;-81
2024/04/18 08:35:26;;;;;;;;;;;;;;;16.53;45.97;98387.78;5394967;26;19941;-81
2024/04/18 08:37:52;;;;;;;;;;;;;;;16.25;46.17;98381.75;5399585;26;20377;-81
2024/04/18 08:40:17;;;;;;;;;;;;;;;16.10;47.14;98385.78;5418241;26;19933;-81
2024/04/18 08:42:43;;;;;;;;;;;;;;;15.98;46.99;98382.38;5413203;26;19979;-81
2024/04/18 08:45:08;;;;;;;;;;;;;;;15.86;47.47;98398.41;5399362;26;19936;-80
2024/04/18 08:47:34;;;;;;;;;;;;;;;15.67;48.04;98397.03;5416371;26;20351;-81
2024/04/18 08:50:00;;;;;;;;;;;;;;;15.71;48.23;98403.47;5417499;26;20266;-81
2024/04/18 08:52:27;;;;;;;;;;;;;;;15.50;48.58;98412.88;5416657;26;19940;-81
2024/04/18 08:54:53;;;;;;;;;;;;;;;15.52;49.10;98409.97;5418290;26;19940;-81
2024/04/18 08:57:21;;;;;;;;;;;;;;;15.55;49.79;98420.97;5408231;26;20342;-81
2024/04/18 09:00:07;;;;;;;;;;;;;;;15.51;49.61;98421.66;5392344;26;20377;-80
2024/04/18 09:02:32;;;;;;;;;;;;;;;15.43;49.95;98427.38;5412782;26;20331;-81
2024/04/18 09:04:58;;;;;;;;;;;;;;;15.43;50.21;98440.66;5414564;26;19936;-80
2024/04/18 09:07:23;;;;;;;;;;;;;;;15.48;49.91;98435.44;5417104;26;20304;-80
2024/04/18 09:09:53;;;;;;;;;;;;;;;15.58;50.82;98447.13;5416824;26;20379;-80
2024/04/18 09:12:18;;;;;;;;;;;;;;;15.56;50.29;98437.72;5383804;26;19998;-80
2024/04/18 09:14:43;;;;;;;;;;;;;;;15.54;51.19;98453.13;5414427;26;19937;-80
2024/04/18 09:17:13;;;;;;;;;;;;;;;15.32;50.72;98462.78;5404345;26;20491;-80
2024/04/18 09:19:38;;;;;;;;;;;;;;;15.11;51.16;98462.34;5413964;26;20286;-80
2024/04/18 09:22:03;;;;;;;;;;;;;;;15.01;51.97;98456.00;5415831;26;19936;-80
2024/04/18 09:24:29;;;;;;;;;;;;;;;14.93;51.38;98449.19;5432383;26;19936;-80
2024/04/18 09:26:54;;;;;;;;;;;;;;;14.80;52.81;98458.19;5392289;26;19933;-80
2024/04/18 09:29:20;;;;;;;;;;;;;;;14.72;53.17;98468.38;5407428;26;19937;-80
2024/04/18 09:31:46;;;;;;;;;;;;;;;14.65;52.89;98468.47;5415759;26;20002;-80
2024/04/18 09:34:13;;;;;;;;;;;;;;;14.65;53.60;98459.69;5399530;26;19941;-80
2024/04/18 09:36:39;;;;;;;;;;;;;;;14.64;53.27;98458.88;5393529;26;20285;-80
2024/04/18 09:39:06;;;;;;;;;;;;;;;14.67;54.82;98457.63;5412005;26;19929;-80
2024/04/18 09:41:36;;;;;;;;;;;;;;;14.74;53.77;98460.97;5407196;26;19956;-79
2024/04/18 09:44:20;;;;;;;;;;;;;;;14.78;54.34;98467.44;5413290;26;19998;-80
2024/04/18 09:46:48;;;;;;;;;;;;;;;14.76;54.56;98462.34;5404311;26;19929;-80
2024/04/18 09:49:14;;;;;;;;;;;;;;;14.62;54.09;98466.28;5413133;26;19940;-81
2024/04/18 09:51:39;;;;;;;;;;;;;;;14.57;54.95;98479.44;5412018;26;20421;-81
2024/04/18 09:54:05;;;;;;;;;;;;;;;14.55;54.39;98468.25;5417479;26;20382;-80
2024/04/18 09:56:33;;;;;;;;;;;;;;;14.47;55.50;98466.72;5392364;26;19978;-80
2024/04/18 09:58:59;;;;;;;;;;;;;;;14.48;55.25;98451.59;5415900;26;19929;-80
2024/04/18 10:01:25;;;;;;;;;;;;;;;14.53;55.79;98451.72;5405029;26;19936;-81
2024/04/18 10:03:50;;;;;;;;;;;;;;;14.50;55.67;98450.34;5416959;26;20278;-81
2024/04/18 10:06:17;;;;;;;;;;;;;;;14.44;56.54;98443.28;5413475;26;19929;-80
2024/04/18 10:08:50;;;;;;;;;;;;;;;14.37;55.61;98455.03;5406937;26;20242;-81
2024/04/18 10:11:17;;;;;;;;;;;;;;;14.24;55.49;98450.72;5407644;26;20267;-84
2024/04/18 10:13:43;;;;;;;;;;;;;;;14.21;57.75;98457.31;5385691;26;19929;-81
2024/04/18 10:16:12;;;;;;;;;;;;;;;14.21;57.32;98461.81;5395440;26;19935;-81
2024/04/18 10:18:38;;;;;;;;;;;;;;;14.21;56.73;98467.13;5418693;26;19940;-80
2024/04/18 10:21:07;;;;;;;;;;;;;;;14.16;56.67;98459.03;5422303;26;19929;-78
2024/04/18 10:23:33;;;;;;;;;;;;;;;14.13;57.25;98451.53;5424942;26;19929;-80
2024/04/18 10:25:58;;;;;;;;;;;;;;;14.18;56.82;98438.38;5423453;26;19998;-82
2024/04/18 10:28:25;;;;;;;;;;;;;;;14.19;57.13;98432.03;5418438;26;20358;-82
2024/04/18 10:30:51;;;;;;;;;;;;;;;14.25;58.54;98434.56;5407878;26;20399;-81
2024/04/18 10:33:16;;;;;;;;;;;;;;;14.31;56.69;98444.28;5416066;26;19929;-85
2024/04/18 10:35:42;;;;;;;;;;;;;;;14.40;56.69;98446.59;5397432;26;19936;-83
2024/04/18 10:38:07;;;;;;;;;;;;;;;14.44;57.83;98450.44;5389685;26;19941;-85
2024/04/18 10:40:33;;;;;;;;;;;;;;;14.46;58.97;98435.09;5393267;26;19929;-82
2024/04/18 10:43:11;;;;;;;;;;;;;;;14.50;56.84;98437.06;5399121;26;19956;-86
2024/04/18 10:45:37;;;;;;;;;;;;;;;14.56;56.49;98438.78;5401794;26;19932;-84
2024/04/18 10:48:02;;;;;;;;;;;;;;;14.60;56.33;98445.25;5414603;26;20381;-84
2024/04/18 10:50:28;;;;;;;;;;;;;;;14.59;56.04;98443.63;5418497;26;19929;-84
2024/04/18 10:52:54;;;;;;;;;;;;;;;14.54;55.50;98446.19;5401292;26;19929;-85
2024/04/18 10:55:21;;;;;;;;;;;;;;;14.45;56.00;98449.41;5386569;26;19930;-85
2024/04/18 10:57:46;;;;;;;;;;;;;;;14.42;56.45;98452.50;5415017;26;19933;-84
2024/04/18 11:00:16;;;;;;;;;;;;;;;14.40;57.79;98460.69;5412034;26;19941;-84
2024/04/18 11:02:41;;;;;;;;;;;;;;;14.46;58.94;98456.34;5417842;26;19936;-85
2024/04/18 11:05:08;;;;;;;;;;;;;;;14.50;60.11;98463.63;5395580;26;19930;-85
2024/04/18 11:07:33;;;;;;;;;;;;;;;14.59;57.52;98470.22;5392496;26;19948;-82
2024/04/18 11:09:58;;;;;;;;;;;;;;;14.62;57.07;98474.25;5414868;26;19929;-80
2024/04/18 11:12:24;;;;;;;;;;;;;;;14.60;58.75;98461.19;5436085;26;19941;-80
2024/04/18 11:14:51;;;;;;;;;;;;;;;14.66;57.61;98470.09;5386486;26;19929;-81
2024/04/18 11:17:16;;;;;;;;;;;;;;;14.73;57.81;98467.31;5419355;26;20332;-80
2024/04/18 11:19:42;;;;;;;;;;;;;;;14.77;58.64;98471.13;5415090;26;19929;-80
2024/04/18 11:22:07;;;;;;;;;;;;;;;14.83;56.91;98478.19;5404205;26;19999;-81
2024/04/18 11:24:33;;;;;;;;;;;;;;;14.72;56.75;98479.78;5393069;26;19992;-79
2024/04/18 11:27:01;;;;;;;;;;;;;;;14.69;59.38;98474.94;5400970;26;20370;-80
2024/04/18 11:29:27;;;;;;;;;;;;;;;14.67;58.20;98461.09;5407353;26;19960;-80
2024/04/18 11:31:52;;;;;;;;;;;;;;;14.71;58.79;98464.91;5412177;26;19937;-80
2024/04/18 11:34:17;;;;;;;;;;;;;;;14.73;59.18;98469.97;5411631;26;19929;-80
2024/04/18 11:36:43;;;;;;;;;;;;;;;14.68;58.33;98460.03;5393364;26;20284;-79
2024/04/18 11:39:08;;;;;;;;;;;;;;;14.74;60.88;98458.31;5401435;26;19937;-78
2024/04/18 11:41:33;;;;;;;;;;;;;;;14.76;59.57;98459.69;5386284;26;19929;-80
2024/04/18 11:43:59;;;;;;;;;;;;;;;14.79;58.70;98458.44;5386139;26;19944;-81
2024/04/18 11:46:25;;;;;;;;;;;;;;;14.78;58.94;98452.31;5418026;26;19998;-80
2024/04/18 11:48:51;;;;;;;;;;;;;;;14.85;59.48;98452.19;5388612;26;19930;-79
2024/04/18 11:51:16;;;;;;;;;;;;;;;14.93;58.99;98454.53;5404100;26;19929;-78
2024/04/18 11:53:42;;;;;;;;;;;;;;;15.04;58.80;98464.34;5399991;26;20259;-79
2024/04/18 11:56:07;;;;;;;;;;;;;;;15.06;59.92;98462.25;5381276;26;19930;-81
2024/04/18 11:58:33;;;;;;;;;;;;;;;15.15;59.57;98468.00;5411106;26;20003;-79
2024/04/18 12:00:58;;;;;;;;;;;;;;;15.14;59.62;98469.06;5381597;26;19940;-79
2024/04/18 12:03:27;;;;;;;;;;;;;;;15.14;60.60;98464.56;5418572;26;19997;-80
2024/04/18 12:05:52;;;;;;;;;;;;;;;15.22;59.56;98466.84;5409419;26;19930;-80
2024/04/18 12:08:17;;;;;;;;;;;;;;;15.26;59.75;98461.88;5383561;26;20035;-80
2024/04/18 12:10:43;;;;;;;;;;;;;;;15.34;58.05;98458.03;5407723;26;19929;-78
2024/04/18 12:13:08;;;;;;;;;;;;;;;15.40;58.64;98457.09;5434393;26;19929;-79
2024/04/18 12:15:33;;;;;;;;;;;;;;;15.50;57.94;98459.94;5392345;26;20376;-80
2024/04/18 12:17:59;;;;;;;;;;;;;;;15.55;59.07;98468.03;5385388;26;19956;-80
2024/04/18 12:20:24;;;;;;;;;;;;;;;15.52;57.82;98465.84;5406171;26;19936;-79
2024/04/18 12:22:49;;;;;;;;;;;;;;;15.52;58.66;98461.34;5417434;26;19933;-79
2024/04/18 12:25:15;;;;;;;;;;;;;;;15.41;57.57;98462.19;5405599;26;19929;-80
2024/04/18 12:27:40;;;;;;;;;;;;;;;15.51;58.03;98458.91;5403063;26;19929;-80
2024/04/18 12:30:07;;;;;;;;;;;;;;;15.71;58.14;98455.91;5407621;26;21732;-79
2024/04/18 12:32:33;;;;;;;;;;;;;;;15.89;57.41;98469.00;5394633;26;20052;-79
2024/04/18 12:34:58;;;;;;;;;;;;;;;16.03;56.33;98473.00;5399497;26;19929;-80
2024/04/18 12:37:23;;;;;;;;;;;;;;;16.15;57.18;98476.41;5417826;26;19935;-81
2024/04/18 12:39:49;;;;;;;;;;;;;;;16.25;56.93;98490.94;5414740;26;19940;-80
2024/04/18 12:42:15;;;;;;;;;;;;;;;16.24;57.17;98487.47;5405101;26;20398;-80